ADDS METAR Data INFO
IDs: Format: Raw Decoded Include TAF

Data at: 1013 UTC 12 Dec 2017

KLPR 120953Z AUTO 33016G25KT 1 1/4SM -SN BKN009 BKN014 OVC018 M01/M03 A2965 RMK AO2 SNB11 SLP049 P0000 I1000 T10061033
KLPR 120951Z AUTO 33015G25KT 1 1/4SM -SN BKN007 OVC014 M01/M03 A2965 RMK AO2 SNB11 P0000 I1000
KLPR 120941Z AUTO 32015G22KT 2 1/2SM -SN BKN007 OVC012 00/M03 A2965 RMK AO2 SNB11 CIG 006V011 P0000 I1000 T00001033
KLPR 120932Z AUTO 33014G24KT 3SM -SN OVC007 00/M03 A2964 RMK AO2 SNB11 P0000 I1000 T00001033
KLPR 120916Z AUTO 33015G20KT 2 1/2SM -SN OVC007 00/M03 A2963 RMK AO2 SNB11 CIG 006V011 P0000 I1000 T00001028
KLPR 120853Z AUTO 32013KT 4SM HZ OVC007 00/M03 A2963 RMK AO2 SNE44 CIG 004V011 SLP041 P0000 60000 T00001028 53008
KLPR 120841Z AUTO 32014KT 3SM -SN BKN005 OVC010 00/M03 A2963 RMK AO2 CIG 004V008 P0000 T00001028
KLPR 120753Z AUTO 31004KT 1 1/4SM -SN BKN006 OVC016 M01/M03 A2962 RMK AO2 SLP038 P0000 T10061033
KLPR 120725Z AUTO 31004KT 1 3/4SM -SN FEW008 FEW017 OVC025 M01/M04 A2962 RMK AO2 P0000 T10061044
KLPR 120721Z AUTO 31004KT 2SM -SN OVC025 M01/M05 A2962 RMK AO2 P0000 T10061050
KLPR 120712Z AUTO 29004KT 4SM -SN OVC028 M01/M05 A2961 RMK AO2 P0000 T10061050
KLPR 120653Z AUTO 31004KT 7SM -SN BKN030 OVC036 M01/M05 A2961 RMK AO2 SNB18E34B53 SLP034 P0000 T10061050
KLPR 120553Z AUTO 05003KT 8SM OVC047 00/M06 A2961 RMK AO2 SLP033 T00001061 10006 21006 56021
KLPR 120453Z AUTO 04006KT 10SM OVC050 01/M06 A2962 RMK AO2 SLP038 T00061061 400061056
KLPR 120353Z AUTO 18004KT 10SM OVC055 00/M06 A2963 RMK AO2 SLP043 T00001061
KLPR 120253Z AUTO 17005KT 10SM OVC055 00/M07 A2967 RMK AO2 SLP054 T00001067 58030
KLPR 120153Z AUTO 19008KT 10SM BKN085 BKN120 00/M07 A2971 RMK AO2 SLP070 T00001067
KLPR 120053Z AUTO 19009KT 10SM SCT070 SCT090 BKN110 00/M07 A2974 RMK AO2 SLP078 T00001067
KLPR 112353Z AUTO 18010KT 10SM OVC070 00/M07 A2976 RMK AO2 SLP085 60000 T00001067 10000 21017 58029
KLPR 112253Z AUTO 18008KT 10SM BKN070 M01/M07 A2979 RMK AO2 SLP094 T10061067
KLPR 112153Z AUTO 17007KT 10SM BKN070 BKN120 M01/M07 A2983 RMK AO2 SNB06E18 SLP109 P0000 T10111072
KLPR 112053Z AUTO 15008KT 10SM BKN055 OVC075 M01/M07 A2985 RMK AO2 SLP115 60000 T10111072 58032
KLPR 111953Z AUTO 17009KT 10SM OVC065 M01/M08 A2988 RMK AO2 SNE03 SLP127 P0000 T10111078
KLPR 111853Z AUTO 18007KT 7SM -SN OVC065 M02/M08 A2992 RMK AO2 SNB39 SLP139 P0000 T10171083
KLPR 111753Z AUTO 21005KT 9SM FEW035 SCT044 OVC060 M02/M08 A2994 RMK AO2 SNB05E50 SLP148 P0000 60000 T10171083 11011 21056 58034
KLPR 111653Z AUTO 19006KT 10SM FEW050 BKN060 OVC070 M02/M09 A2997 RMK AO2 SLP159 T10171094
KLPR 111553Z AUTO 23007KT 10SM OVC080 M02/M08 A3002 RMK AO2 SLP175 T10221083
KLPR 111453Z AUTO 23006KT 10SM CLR M03/M08 A3005 RMK AO2 SLP184 T10331083 50000
KLPR 111353Z AUTO 26006KT 10SM CLR M04/M08 A3006 RMK AO2 SLP190 T10441083
KLPR 111253Z AUTO 27004KT 10SM OVC032 M05/M09 A3005 RMK AO2 SLP185 T10501089
KLPR 111153Z AUTO 25006KT 10SM OVC030 M03/M08 A3004 RMK AO2 SLP183 T10331078 11011 21033 50006
KLPR 111149Z AUTO 26007KT 10SM OVC030 M03/M08 A3005 RMK AO2
KLPR 111053Z AUTO 26005KT 10SM OVC025 M03/M08 A3005 RMK AO2 SLP185 T10281078
KLPR 110953Z AUTO 30005KT 10SM OVC028 M02/M08 A3003 RMK AO2 SLP177 T10221078
KLPR 110853Z AUTO 32007KT 10SM OVC026 M02/M08 A3002 RMK AO2 SLP174 T10171083 51014
KLPR 110753Z AUTO 29006KT 10SM OVC027 M02/M08 A3001 RMK AO2 SLP170 T10171078
KLPR 110653Z AUTO 32009KT 10SM OVC021 M01/M07 A3000 RMK AO2 SLP167 T10111067
KLPR 110619Z AUTO 29008KT 10SM BKN021 BKN027 OVC033 M01/M07 A2999 RMK AO2 T10111072
KLPR 110553Z AUTO 28007KT 10SM OVC033 M02/M08 A2998 RMK AO2 SLP161 T10171078 11011 21017 53005
KLPR 110507Z AUTO 27006KT 10SM SCT029 OVC036 M02/M08 A2996 RMK AO2 T10171078
KLPR 110453Z AUTO 27006KT 10SM BKN029 OVC036 M02/M08 A2996 RMK AO2 SLP156 T10171078 410171061
KLPR 110438Z AUTO 27005KT 10SM BKN029 OVC036 M02/M08 A2996 RMK AO2 T10171078
KLPR 110353Z AUTO 25006KT 10SM SCT031 OVC038 M02/M08 A2996 RMK AO2 SLP155 T10171078
KLPR 110253Z AUTO 25008KT 10SM OVC034 M02/M08 A2996 RMK AO2 SLP155 T10171083 58002
KLPR 110153Z AUTO 25011KT 10SM OVC031 M02/M08 A2997 RMK AO2 SLP157 T10171083
KLPR 110053Z AUTO 23010KT 10SM OVC034 M02/M08 A2997 RMK AO2 SLP157 T10171083
KLPR 102353Z AUTO 24012KT 10SM OVC038 M02/M09 A2997 RMK AO2 SLP159 T10171089 11017 21033 53014
KLPR 102253Z AUTO 24012KT 10SM OVC043 M02/M09 A2996 RMK AO2 SLP155 T10221089